Time;durP1;ratioP1;P1;durP2;ratioP2;P2;SDS_P1;SDS_P2;PMS_P1;PMS_P2;Temp;Humidity;BMP_temperature;BMP_pressure;BME280_temperature;BME280_humidity;BME280_pressure;Samples;Min_cycle;Max_cycle;Signal;HPM_P1;HPM_P2
2023/07/04 00:01:21;;;;;;;5.67;3.83;;;18.00;99.90;;;;;;5069577;28;20287;-77
2023/07/04 00:03:51;;;;;;;3.63;2.90;;;17.90;99.90;;;;;;5063859;28;20606;-75
2023/07/04 00:06:19;;;;;;;4.37;2.97;;;17.80;99.90;;;;;;5063139;28;20206;-77
2023/07/04 00:08:48;;;;;;;3.30;3.00;;;17.80;99.90;;;;;;5061004;28;20204;-77
2023/07/04 00:11:15;;;;;;;4.13;2.73;;;17.70;99.90;;;;;;5062342;28;20272;-77
2023/07/04 00:13:42;;;;;;;3.27;2.90;;;17.70;99.90;;;;;;5068054;28;20641;-77
2023/07/04 00:16:10;;;;;;;3.90;2.70;;;17.60;99.90;;;;;;5059053;28;20194;-77
2023/07/04 00:18:39;;;;;;;7.10;6.43;;;17.50;99.90;;;;;;5055551;28;20195;-77
2023/07/04 00:21:11;;;;;;;5.20;3.03;;;17.50;99.90;;;;;;5054995;28;20247;-77
2023/07/04 00:23:38;;;;;;;4.50;2.87;;;17.50;99.90;;;;;;5050436;28;20220;-77
2023/07/04 00:26:08;;;;;;;5.03;3.23;;;17.40;99.90;;;;;;5042711;28;20199;-77
2023/07/04 00:28:38;;;;;;;5.67;3.07;;;17.40;99.90;;;;;;5056324;28;20641;-77
2023/07/04 00:31:05;;;;;;;4.00;3.30;;;17.30;99.90;;;;;;5067752;28;20203;-78
2023/07/04 00:33:33;;;;;;;4.30;3.20;;;17.30;99.90;;;;;;5063827;28;20282;-77
2023/07/04 00:36:03;;;;;;;5.97;3.10;;;17.20;99.90;;;;;;5068701;28;20229;-77
2023/07/04 00:38:32;;;;;;;3.63;2.80;;;17.20;99.90;;;;;;5063529;28;20419;-75
2023/07/04 00:41:01;;;;;;;3.57;3.00;;;17.10;99.90;;;;;;5055148;28;20653;-77
2023/07/04 00:43:46;;;;;;;3.90;3.00;;;17.10;99.90;;;;;;5056663;28;20211;-77
2023/07/04 00:46:15;;;;;;;7.67;6.93;;;17.00;99.90;;;;;;5056959;28;20201;-78
2023/07/04 00:48:44;;;;;;;5.30;4.83;;;17.00;99.90;;;;;;5053170;28;20229;-77
2023/07/04 00:51:21;;;;;;;6.87;6.37;;;16.90;99.90;;;;;;5061967;28;20249;-78
2023/07/04 00:53:53;;;;;;;5.07;3.13;;;16.90;99.90;;;;;;5064607;28;20198;-79
2023/07/04 00:56:24;;;;;;;6.90;3.20;;;16.80;99.90;;;;;;5070889;28;20202;-78
2023/07/04 00:58:52;;;;;;;5.13;4.63;;;16.80;99.90;;;;;;5068064;28;20194;-77
2023/07/04 01:01:19;;;;;;;6.70;6.00;;;16.80;99.90;;;;;;5065051;28;20273;-78
2023/07/04 01:03:47;;;;;;;7.70;7.00;;;16.70;99.90;;;;;;5068533;28;20283;-78
2023/07/04 01:06:21;;;;;;;7.43;6.73;;;16.70;99.90;;;;;;5062682;28;20263;-78
2023/07/04 01:08:56;;;;;;;4.27;3.17;;;16.70;99.90;;;;;;5065121;28;20589;-78
2023/07/04 01:11:30;;;;;;;4.87;3.53;;;16.70;99.90;;;;;;5064570;28;20552;-78
2023/07/04 01:13:57;;;;;;;4.87;3.77;;;16.70;99.90;;;;;;5067617;28;20226;-75
2023/07/04 01:16:24;;;;;;;3.67;3.13;;;16.70;99.90;;;;;;5059920;28;20222;-77
2023/07/04 01:18:54;;;;;;;4.13;2.93;;;16.70;99.90;;;;;;5059126;28;20202;-75
2023/07/04 01:21:26;;;;;;;4.50;3.30;;;16.80;99.90;;;;;;5068909;28;20208;-78
2023/07/04 01:24:00;;;;;;;10.83;3.60;;;16.80;99.90;;;;;;5066582;28;20195;-77
2023/07/04 01:26:32;;;;;;;4.10;3.33;;;16.80;99.90;;;;;;5059975;28;20200;-77
2023/07/04 01:29:00;;;;;;;4.40;3.40;;;16.90;99.90;;;;;;5061750;28;20628;-77
2023/07/04 01:31:30;;;;;;;3.60;2.97;;;16.90;99.90;;;;;;5070061;28;20687;-77
2023/07/04 01:33:58;;;;;;;4.27;3.10;;;16.90;99.90;;;;;;5065326;28;20252;-78
2023/07/04 01:36:28;;;;;;;3.57;3.23;;;16.90;99.90;;;;;;5068886;28;20581;-77
2023/07/04 01:38:55;;;;;;;5.00;3.60;;;17.00;99.90;;;;;;5070641;28;20421;-78
2023/07/04 01:41:24;;;;;;;3.20;2.77;;;17.10;99.90;;;;;;5069212;28;20187;-77
2023/07/04 01:43:56;;;;;;;4.33;3.53;;;17.10;99.90;;;;;;5069892;28;20205;-77
2023/07/04 01:46:24;;;;;;;5.13;3.40;;;17.20;99.90;;;;;;5058499;28;20195;-78
2023/07/04 01:48:51;;;;;;;6.30;3.77;;;17.20;99.90;;;;;;5060100;28;20697;-77
2023/07/04 01:51:23;;;;;;;3.63;3.10;;;17.20;99.90;;;;;;5069066;28;20207;-77
2023/07/04 01:53:50;;;;;;;4.30;3.30;;;17.30;99.90;;;;;;5062370;28;20801;-77
2023/07/04 01:56:17;;;;;;;3.50;3.20;;;17.30;99.90;;;;;;5070290;28;20202;-77
2023/07/04 01:58:44;;;;;;;4.47;3.37;;;17.30;99.90;;;;;;5062294;28;20223;-77
2023/07/04 02:01:12;;;;;;;3.97;3.27;;;17.30;99.90;;;;;;5067030;28;20192;-77
2023/07/04 02:03:39;;;;;;;5.00;4.33;;;17.20;99.90;;;;;;5061543;28;20229;-77
2023/07/04 02:06:07;;;;;;;5.27;4.47;;;17.20;99.90;;;;;;5072869;28;20195;-77
2023/07/04 02:08:34;;;;;;;4.90;4.50;;;17.20;99.90;;;;;;5064391;28;20207;-77
2023/07/04 02:11:02;;;;;;;6.60;4.40;;;17.20;99.90;;;;;;5066224;28;20202;-75
2023/07/04 02:13:29;;;;;;;4.57;3.70;;;17.30;99.90;;;;;;5068102;28;20224;-78
2023/07/04 02:15:56;;;;;;;5.73;4.13;;;17.30;99.90;;;;;;5067483;28;20195;-77
2023/07/04 02:18:26;;;;;;;5.83;4.23;;;17.30;99.90;;;;;;5071412;28;20248;-77
2023/07/04 02:20:53;;;;;;;5.07;4.40;;;17.30;99.90;;;;;;5065876;28;20736;-77
2023/07/04 02:23:20;;;;;;;5.73;5.07;;;17.30;99.90;;;;;;5064922;28;20273;-77
2023/07/04 02:25:48;;;;;;;7.10;6.10;;;17.30;99.90;;;;;;5072734;28;20267;-77
2023/07/04 02:28:15;;;;;;;6.50;6.00;;;17.20;99.90;;;;;;5066123;28;20218;-77
2023/07/04 02:30:52;;;;;;;6.23;5.63;;;17.20;99.90;;;;;;5066827;28;20194;-77
2023/07/04 02:33:19;;;;;;;6.53;5.40;;;17.20;99.90;;;;;;5060451;28;20559;-77
2023/07/04 02:35:48;;;;;;;4.90;4.50;;;17.10;99.90;;;;;;5068467;28;20214;-77
2023/07/04 02:38:18;;;;;;;5.23;4.83;;;17.10;99.90;;;;;;5071095;28;20331;-77
2023/07/04 02:40:46;;;;;;;5.60;5.20;;;17.00;99.90;;;;;;5062545;28;20200;-77
2023/07/04 02:43:14;;;;;;;5.57;5.07;;;17.00;99.90;;;;;;5057786;28;20220;-77
2023/07/04 02:45:42;;;;;;;5.60;5.10;;;16.90;99.90;;;;;;5062690;28;20204;-77
2023/07/04 02:48:12;;;;;;;5.00;4.60;;;16.90;99.90;;;;;;5065606;28;20199;-75
2023/07/04 02:50:39;;;;;;;5.20;4.57;;;16.90;99.90;;;;;;5067169;28;20195;-84
2023/07/04 02:53:07;;;;;;;3.20;3.00;;;16.80;99.90;;;;;;5051807;28;20223;-80
2023/07/04 02:55:35;;;;;;;3.33;2.97;;;16.70;99.90;;;;;;5053215;28;20223;-79
2023/07/04 02:58:03;;;;;;;3.23;2.77;;;16.70;99.90;;;;;;5050006;28;20206;-79
2023/07/04 03:00:30;;;;;;;3.20;2.60;;;16.60;99.90;;;;;;5054102;28;20226;-79
2023/07/04 03:02:57;;;;;;;3.43;2.60;;;16.60;99.90;;;;;;5052641;28;20245;-79
2023/07/04 03:05:27;;;;;;;4.60;4.23;;;16.50;99.90;;;;;;5050265;28;20594;-79
2023/07/04 03:07:55;;;;;;;5.40;5.00;;;16.40;99.90;;;;;;5049903;28;20199;-80
2023/07/04 03:10:23;;;;;;;5.23;4.83;;;16.40;99.90;;;;;;5057342;28;20218;-79
2023/07/04 03:12:50;;;;;;;5.00;4.60;;;16.40;99.90;;;;;;5048199;28;20311;-81
2023/07/04 03:15:18;;;;;;;5.43;5.03;;;16.30;99.90;;;;;;5047888;28;20207;-81
2023/07/04 03:17:49;;;;;;;5.73;5.33;;;16.30;99.90;;;;;;5054666;28;20206;-79
2023/07/04 03:20:17;;;;;;;3.40;3.00;;;16.30;99.90;;;;;;5043427;28;20539;-79
2023/07/04 03:22:47;;;;;;;3.20;2.90;;;16.30;99.90;;;;;;5050049;28;20268;-80
2023/07/04 03:25:15;;;;;;;6.37;5.83;;;16.30;99.90;;;;;;5055443;28;20234;-81
2023/07/04 03:27:45;;;;;;;5.70;5.30;;;16.30;99.90;;;;;;5075077;28;20202;-81
2023/07/04 03:30:15;;;;;;;5.00;4.60;;;16.30;99.90;;;;;;5072257;28;20234;-81
2023/07/04 03:32:44;;;;;;;4.40;4.00;;;16.40;99.90;;;;;;5061087;28;20246;-81
2023/07/04 03:35:11;;;;;;;4.23;3.93;;;16.40;99.90;;;;;;5075064;28;20198;-81
2023/07/04 03:37:42;;;;;;;4.73;4.43;;;16.50;99.90;;;;;;5056339;28;20577;-79
2023/07/04 03:40:11;;;;;;;4.80;4.40;;;16.50;99.90;;;;;;5061456;28;20186;-81
2023/07/04 03:42:39;;;;;;;4.37;3.97;;;16.50;99.90;;;;;;5061380;28;20222;-81
2023/07/04 03:45:09;;;;;;;4.90;4.50;;;16.50;99.90;;;;;;5061355;28;20198;-80
2023/07/04 03:47:36;;;;;;;7.47;6.87;;;16.60;99.90;;;;;;5063009;28;20206;-81
2023/07/04 03:50:04;;;;;;;7.90;7.40;;;16.60;99.90;;;;;;5053619;28;20648;-81
2023/07/04 03:52:31;;;;;;;3.07;2.53;;;16.60;99.90;;;;;;5057495;28;20230;-80
2023/07/04 03:54:58;;;;;;;3.07;2.77;;;16.50;99.90;;;;;;5051381;28;20547;-81
2023/07/04 03:57:25;;;;;;;3.47;3.17;;;16.50;99.90;;;;;;5055387;28;20223;-81
2023/07/04 03:59:52;;;;;;;4.27;2.90;;;16.50;99.90;;;;;;5060048;28;20200;-80
2023/07/04 04:02:20;;;;;;;3.13;2.83;;;16.60;99.90;;;;;;5058142;28;20242;-81
2023/07/04 04:04:47;;;;;;;3.30;3.00;;;16.60;99.90;;;;;;5061406;28;20260;-81
2023/07/04 04:07:14;;;;;;;3.17;2.87;;;16.60;99.90;;;;;;5062431;28;20206;-79
2023/07/04 04:09:42;;;;;;;7.77;7.10;;;16.60;99.90;;;;;;5054080;28;20218;-81
2023/07/04 04:12:09;;;;;;;6.77;6.23;;;16.70;99.90;;;;;;5054294;28;20223;-80
2023/07/04 04:14:37;;;;;;;7.43;6.93;;;16.70;99.90;;;;;;5061874;28;20199;-80
2023/07/04 04:17:05;;;;;;;7.73;7.13;;;16.70;99.90;;;;;;5054188;28;20208;-81
2023/07/04 04:19:34;;;;;;;7.57;6.97;;;16.70;99.90;;;;;;5050502;28;20255;-81
2023/07/04 04:22:00;;;;;;;6.83;6.30;;;16.70;99.90;;;;;;5053288;28;20219;-80
2023/07/04 04:24:27;;;;;;;7.30;6.80;;;16.80;99.90;;;;;;5046008;28;20634;-81
2023/07/04 04:26:54;;;;;;;3.47;3.17;;;16.80;99.90;;;;;;5053326;28;20700;-81
2023/07/04 04:29:22;;;;;;;4.27;3.93;;;16.90;99.90;;;;;;5058044;28;20206;-80
2023/07/04 04:31:49;;;;;;;3.13;2.90;;;17.00;99.90;;;;;;5054084;28;20635;-81
2023/07/04 04:34:17;;;;;;;8.00;7.40;;;17.20;99.90;;;;;;5054222;28;20615;-80
2023/07/04 04:36:46;;;;;;;4.97;4.43;;;17.20;99.90;;;;;;5059863;28;20218;-80
2023/07/04 04:39:13;;;;;;;3.90;3.60;;;17.50;99.90;;;;;;5056029;28;20283;-81
2023/07/04 04:41:41;;;;;;;3.30;3.00;;;17.70;99.90;;;;;;5055378;28;20200;-79
2023/07/04 04:44:09;;;;;;;3.17;2.87;;;17.90;99.90;;;;;;5058451;28;20220;-80
2023/07/04 04:46:36;;;;;;;6.50;6.10;;;18.00;99.90;;;;;;5057670;28;20202;-81
2023/07/04 04:49:03;;;;;;;5.53;5.13;;;18.00;99.90;;;;;;5059078;28;20184;-80
2023/07/04 04:51:31;;;;;;;3.30;3.00;;;18.00;99.90;;;;;;5061422;28;20257;-80
2023/07/04 04:54:01;;;;;;;3.40;3.10;;;18.00;99.90;;;;;;5061982;28;20256;-81
2023/07/04 04:56:29;;;;;;;3.80;3.20;;;17.90;99.90;;;;;;5056676;28;20201;-81
2023/07/04 04:58:56;;;;;;;3.50;3.20;;;17.90;99.90;;;;;;5053973;28;20235;-81
2023/07/04 05:01:25;;;;;;;6.60;6.10;;;17.90;99.90;;;;;;5057121;28;20249;-77
2023/07/04 05:03:53;;;;;;;5.67;5.20;;;18.00;99.90;;;;;;5056371;28;20270;-81
2023/07/04 05:06:21;;;;;;;6.50;6.00;;;18.00;99.90;;;;;;5058610;28;20194;-79
2023/07/04 05:08:48;;;;;;;7.07;6.47;;;18.10;99.90;;;;;;5061115;28;20208;-81
2023/07/04 05:11:17;;;;;;;4.20;3.90;;;18.30;99.90;;;;;;5059980;28;20259;-80
2023/07/04 05:13:45;;;;;;;4.83;3.17;;;18.40;99.90;;;;;;5057647;28;20217;-81
2023/07/04 05:16:15;;;;;;;3.57;2.93;;;18.50;99.90;;;;;;5053275;28;20193;-79
2023/07/04 05:18:43;;;;;;;6.30;5.80;;;18.70;99.90;;;;;;5063213;28;20202;-80
2023/07/04 05:21:12;;;;;;;3.57;3.27;;;18.90;99.90;;;;;;5060767;28;20194;-80
2023/07/04 05:23:41;;;;;;;5.77;5.27;;;19.00;99.90;;;;;;5051796;28;20226;-79
2023/07/04 05:26:10;;;;;;;6.17;5.57;;;19.10;99.90;;;;;;5053185;28;20198;-80
2023/07/04 05:28:38;;;;;;;4.60;4.20;;;19.30;99.90;;;;;;5066155;28;20207;-80
2023/07/04 05:31:07;;;;;;;4.20;3.80;;;19.40;99.90;;;;;;5062809;28;20199;-80
2023/07/04 05:33:34;;;;;;;3.30;2.97;;;19.50;99.90;;;;;;5053441;28;20242;-79
2023/07/04 05:36:06;;;;;;;5.50;5.10;;;19.60;99.90;;;;;;5056627;28;20196;-80
2023/07/04 05:38:33;;;;;;;5.30;4.90;;;19.70;99.90;;;;;;5054000;28;20203;-81
2023/07/04 05:41:00;;;;;;;5.77;5.27;;;19.70;99.90;;;;;;5060895;28;20195;-80
2023/07/04 05:43:27;;;;;;;5.30;4.90;;;19.80;99.90;;;;;;5058573;28;20215;-80
2023/07/04 05:45:56;;;;;;;3.80;3.13;;;19.90;99.90;;;;;;5056526;28;20191;-81
2023/07/04 05:48:23;;;;;;;6.10;5.60;;;20.00;99.90;;;;;;5062730;28;20190;-81
2023/07/04 05:50:51;;;;;;;5.90;5.40;;;20.10;99.90;;;;;;5068334;28;20199;-79
2023/07/04 05:53:18;;;;;;;6.50;5.30;;;20.10;99.90;;;;;;5057610;28;20219;-79
2023/07/04 05:55:45;;;;;;;5.27;4.77;;;20.10;99.90;;;;;;5050344;28;20203;-79
2023/07/04 05:58:11;;;;;;;5.90;5.30;;;20.10;99.90;;;;;;5065883;28;20738;-81
2023/07/04 06:00:38;;;;;;;3.90;3.03;;;20.10;99.90;;;;;;5062778;28;20202;-80
2023/07/04 06:03:06;;;;;;;3.73;2.97;;;20.10;99.90;;;;;;5062679;28;20215;-80
2023/07/04 06:05:39;;;;;;;3.30;2.67;;;20.10;99.90;;;;;;5068383;28;20661;-81
2023/07/04 06:08:06;;;;;;;3.57;3.23;;;20.10;99.90;;;;;;5062396;28;20704;-81
2023/07/04 06:10:33;;;;;;;3.53;3.10;;;20.10;99.90;;;;;;5070968;28;20209;-79
2023/07/04 06:13:00;;;;;;;3.97;3.50;;;20.20;99.90;;;;;;5061371;28;20242;-80
2023/07/04 06:15:27;;;;;;;7.30;6.60;;;20.20;99.90;;;;;;5049770;28;20216;-79
2023/07/04 06:17:54;;;;;;;6.30;5.90;;;20.20;99.90;;;;;;5052735;28;20206;-79
2023/07/04 06:20:23;;;;;;;4.70;4.30;;;20.30;99.90;;;;;;5064075;28;20195;-81
2023/07/04 06:22:50;;;;;;;4.47;3.33;;;20.30;99.90;;;;;;5060824;28;20224;-77
2023/07/04 06:25:17;;;;;;;4.10;3.23;;;20.20;99.90;;;;;;5055201;28;20230;-79
2023/07/04 06:27:44;;;;;;;5.27;4.80;;;20.30;99.90;;;;;;5064638;28;20689;-78
2023/07/04 06:30:13;;;;;;;5.00;4.50;;;20.40;99.90;;;;;;5052324;28;20210;-78
2023/07/04 06:32:40;;;;;;;3.50;3.23;;;20.50;99.90;;;;;;5069023;28;20219;-77
2023/07/04 06:35:08;;;;;;;3.80;3.50;;;20.60;99.90;;;;;;5071383;28;20195;-77
2023/07/04 06:37:37;;;;;;;5.10;4.60;;;20.80;99.90;;;;;;5060462;28;20198;-78
2023/07/04 06:40:04;;;;;;;6.00;4.93;;;20.90;99.90;;;;;;5068178;28;20200;-78
2023/07/04 06:42:32;;;;;;;6.33;5.73;;;21.00;99.90;;;;;;5067059;28;20267;-78
2023/07/04 06:45:01;;;;;;;5.13;4.63;;;21.20;99.90;;;;;;5070543;28;20230;-77
2023/07/04 06:47:28;;;;;;;3.77;3.20;;;21.40;99.90;;;;;;5063468;28;20244;-79
2023/07/04 06:49:55;;;;;;;6.23;4.80;;;21.60;99.90;;;;;;5062320;28;20201;-78
2023/07/04 06:52:22;;;;;;;5.20;3.40;;;21.80;99.90;;;;;;5063144;28;20729;-76
2023/07/04 06:54:52;;;;;;;3.93;2.80;;;22.00;99.90;;;;;;5043618;28;20192;-78
2023/07/04 06:57:19;;;;;;;4.43;4.03;;;22.10;99.90;;;;;;5060046;28;20717;-76
2023/07/04 06:59:46;;;;;;;6.90;6.27;;;22.40;99.90;;;;;;5063816;28;20206;-78
2023/07/04 07:02:15;;;;;;;6.67;6.07;;;22.60;99.90;;;;;;5063506;28;20214;-78
2023/07/04 07:04:43;;;;;;;3.97;2.97;;;22.80;99.90;;;;;;5063648;28;20302;-77
2023/07/04 07:07:10;;;;;;;6.73;6.23;;;22.90;99.90;;;;;;5069201;28;20186;-79
2023/07/04 07:09:40;;;;;;;6.40;5.90;;;22.90;99.90;;;;;;5055851;28;20207;-77
2023/07/04 07:12:09;;;;;;;7.27;6.57;;;23.10;99.90;;;;;;5060660;28;20728;-78
2023/07/04 07:14:37;;;;;;;4.10;3.33;;;23.30;99.90;;;;;;5050969;28;20625;-76
2023/07/04 07:17:05;;;;;;;3.50;3.13;;;23.50;99.90;;;;;;5058183;28;20574;-75
2023/07/04 07:19:32;;;;;;;5.53;4.13;;;24.10;99.90;;;;;;5064301;28;20596;-75
2023/07/04 07:22:00;;;;;;;3.30;2.70;;;24.60;99.90;;;;;;5055224;28;20267;-76
2023/07/04 07:24:28;;;;;;;4.73;4.33;;;24.70;99.90;;;;;;5056838;28;20246;-75
2023/07/04 07:26:55;;;;;;;4.97;3.23;;;24.40;99.90;;;;;;5057215;28;20198;-76
2023/07/04 07:29:23;;;;;;;5.97;3.93;;;24.10;99.90;;;;;;5063201;28;20201;-75
2023/07/04 07:31:50;;;;;;;5.37;4.70;;;23.90;99.90;;;;;;5056524;28;20211;-75
2023/07/04 07:34:18;;;;;;;4.83;4.10;;;23.70;99.90;;;;;;5068149;28;20572;-77
2023/07/04 07:36:46;;;;;;;4.23;3.17;;;23.60;99.90;;;;;;5064959;28;20286;-77
2023/07/04 07:39:17;;;;;;;4.93;2.57;;;23.50;99.90;;;;;;5071704;28;20216;-78
2023/07/04 07:41:45;;;;;;;5.57;3.33;;;23.50;99.90;;;;;;5065990;28;20262;-78
2023/07/04 07:44:14;;;;;;;3.80;3.23;;;23.70;99.90;;;;;;5061055;28;20751;-77
2023/07/04 07:46:43;;;;;;;3.33;2.90;;;23.70;99.90;;;;;;5062019;28;20259;-78
2023/07/04 07:49:10;;;;;;;5.07;3.10;;;23.60;99.90;;;;;;5056781;28;20269;-76
2023/07/04 07:51:38;;;;;;;2.97;2.70;;;23.70;99.90;;;;;;5046989;28;20561;-78
2023/07/04 07:54:07;;;;;;;4.07;2.87;;;23.90;99.90;;;;;;5048309;28;20195;-77
2023/07/04 07:56:39;;;;;;;6.30;3.40;;;24.00;99.90;;;;;;5038529;28;20238;-76
2023/07/04 07:59:06;;;;;;;7.87;3.40;;;24.10;99.90;;;;;;5048020;28;20210;-76
2023/07/04 08:01:33;;;;;;;6.40;3.43;;;24.30;99.90;;;;;;5045548;28;20219;-78
2023/07/04 08:04:04;;;;;;;4.33;2.67;;;24.60;99.90;;;;;;5049740;28;20218;-76
2023/07/04 08:06:35;;;;;;;6.73;4.10;;;24.70;99.90;;;;;;5045265;28;20288;-77
2023/07/04 08:09:03;;;;;;;6.17;5.70;;;24.70;99.90;;;;;;5049952;28;20596;-76
2023/07/04 08:11:31;;;;;;;6.03;4.03;;;24.90;99.90;;;;;;5045326;28;20196;-76
2023/07/04 08:13:58;;;;;;;3.87;3.50;;;25.10;99.90;;;;;;5057315;28;20650;-76
2023/07/04 08:16:28;;;;;;;6.77;6.07;;;25.20;99.90;;;;;;5038543;28;20261;-75
2023/07/04 08:18:56;;;;;;;3.57;3.10;;;25.30;99.90;;;;;;5044940;28;20207;-76
2023/07/04 08:21:24;;;;;;;4.73;3.27;;;25.50;99.90;;;;;;5053695;28;20274;-77
2023/07/04 08:23:51;;;;;;;4.67;3.07;;;25.50;99.90;;;;;;5045099;28;20215;-77
2023/07/04 08:26:20;;;;;;;5.33;4.60;;;25.50;99.90;;;;;;5042937;28;20684;-77
2023/07/04 08:28:47;;;;;;;4.27;3.87;;;25.60;99.90;;;;;;5048854;28;20572;-79
2023/07/04 08:31:17;;;;;;;6.60;3.50;;;25.60;99.90;;;;;;5042538;28;20644;-80
2023/07/04 08:33:44;;;;;;;6.77;3.87;;;25.90;99.90;;;;;;5051773;28;20227;-80
2023/07/04 08:36:12;;;;;;;5.13;4.50;;;26.00;99.90;;;;;;5050117;28;20614;-79
2023/07/04 08:38:40;;;;;;;7.43;6.80;;;26.20;99.90;;;;;;5055465;28;20199;-80
2023/07/04 08:41:19;;;;;;;7.93;6.17;;;26.30;99.90;;;;;;5049901;28;20192;-80
2023/07/04 08:43:51;;;;;;;4.87;3.00;;;26.10;99.90;;;;;;5040365;28;20697;-79
2023/07/04 08:46:20;;;;;;;6.20;3.00;;;26.20;99.90;;;;;;5046933;28;20199;-79
2023/07/04 08:48:48;;;;;;;5.13;2.93;;;26.40;99.90;;;;;;5051458;28;20547;-79
2023/07/04 08:51:21;;;;;;;4.87;4.47;;;26.70;99.90;;;;;;5051196;28;20195;-79
2023/07/04 08:53:57;;;;;;;8.40;6.40;;;27.10;99.90;;;;;;5045206;28;20220;-80
2023/07/04 08:56:35;;;;;;;8.57;5.67;;;27.00;99.90;;;;;;5041485;28;20245;-79
2023/07/04 08:59:10;;;;;;;7.17;6.30;;;26.90;99.90;;;;;;5041310;28;20211;-80
2023/07/04 09:01:50;;;;;;;7.47;5.83;;;27.00;99.90;;;;;;5048912;28;20195;-79
2023/07/04 09:04:24;;;;;;;7.93;7.23;;;26.80;99.90;;;;;;5043348;28;20275;-79
2023/07/04 09:07:00;;;;;;;8.30;6.50;;;26.60;99.90;;;;;;5052440;28;20226;-79
2023/07/04 09:09:39;;;;;;;6.60;6.00;;;26.60;99.90;;;;;;5052843;28;20202;-79
2023/07/04 09:12:07;;;;;;;6.93;6.33;;;26.80;99.90;;;;;;5052200;28;20210;-80
2023/07/04 09:14:39;;;;;;;7.00;6.13;;;27.00;99.90;;;;;;5049364;28;20202;-79
2023/07/04 09:17:15;;;;;;;7.83;7.07;;;27.20;99.90;;;;;;5045855;28;20744;-80
2023/07/04 09:19:46;;;;;;;8.60;7.00;;;27.40;99.90;;;;;;5057305;28;20250;-78
2023/07/04 09:22:14;;;;;;;8.23;7.10;;;27.90;99.90;;;;;;5054373;28;20302;-80
2023/07/04 09:24:42;;;;;;;8.23;7.53;;;28.30;99.90;;;;;;5053222;28;20215;-80
2023/07/04 09:27:13;;;;;;;8.60;7.80;;;28.20;99.90;;;;;;5048211;28;20196;-81
2023/07/04 09:29:40;;;;;;;9.07;8.00;;;28.20;99.90;;;;;;5054649;28;20199;-78
2023/07/04 09:32:08;;;;;;;8.50;7.80;;;28.30;99.90;;;;;;5046565;28;20227;-77
2023/07/04 09:34:40;;;;;;;8.87;8.10;;;28.50;99.90;;;;;;5053991;28;20570;-77
2023/07/04 09:37:13;;;;;;;8.50;7.70;;;28.40;99.90;;;;;;5046131;28;20275;-78
2023/07/04 09:39:50;;;;;;;8.60;7.90;;;28.10;99.90;;;;;;5052259;28;20195;-77
2023/07/04 09:42:18;;;;;;;8.60;7.83;;;27.90;99.90;;;;;;5047790;28;20229;-76
2023/07/04 09:44:46;;;;;;;9.40;8.50;;;27.50;99.90;;;;;;5049875;28;20741;-78
2023/07/04 09:47:22;;;;;;;8.30;7.60;;;27.60;99.90;;;;;;5052167;28;20242;-79
2023/07/04 09:50:07;;;;;;;9.23;8.17;;;27.90;99.90;;;;;;5047606;28;20198;-76
2023/07/04 09:52:34;;;;;;;8.30;7.43;;;28.00;99.90;;;;;;5044960;28;20230;-76
2023/07/04 09:55:16;;;;;;;7.80;7.00;;;28.10;99.90;;;;;;5049486;28;20195;-77
2023/07/04 09:57:44;;;;;;;8.50;7.20;;;28.10;99.80;;;;;;5054258;28;20654;-77
2023/07/04 10:00:24;;;;;;;9.63;7.87;;;28.10;99.90;;;;;;5050772;28;20692;-77
2023/07/04 10:02:54;;;;;;;7.77;7.00;;;28.20;99.90;;;;;;5050496;28;20215;-77
2023/07/04 10:05:27;;;;;;;8.27;7.40;;;28.70;99.90;;;;;;5050416;28;20559;-78
2023/07/04 10:08:07;;;;;;;8.27;7.43;;;28.70;99.30;;;;;;5052201;28;20227;-79
2023/07/04 10:10:38;;;;;;;8.33;7.57;;;28.90;99.50;;;;;;5050226;28;20214;-78
2023/07/04 10:13:07;;;;;;;7.77;6.97;;;29.20;99.00;;;;;;5050932;28;20227;-76
2023/07/04 10:15:40;;;;;;;7.80;7.07;;;29.20;98.20;;;;;;5051332;28;20215;-76
2023/07/04 10:18:12;;;;;;;8.90;7.03;;;29.40;97.40;;;;;;5063548;28;20202;-79
2023/07/04 10:20:41;;;;;;;7.70;7.00;;;29.40;98.30;;;;;;5049122;28;20211;-78
2023/07/04 10:23:08;;;;;;;7.33;6.67;;;29.30;99.00;;;;;;5050571;28;20599;-77
2023/07/04 10:25:36;;;;;;;6.80;6.10;;;29.40;97.90;;;;;;5049755;28;20215;-77
2023/07/04 10:28:13;;;;;;;7.63;5.93;;;29.50;98.50;;;;;;5061660;28;20196;-76
2023/07/04 10:30:43;;;;;;;8.17;6.43;;;29.30;96.90;;;;;;5065286;28;20278;-76
2023/07/04 10:33:17;;;;;;;6.87;5.83;;;29.30;98.10;;;;;;5068449;28;20288;-76
2023/07/04 10:35:47;;;;;;;6.33;5.77;;;29.60;98.10;;;;;;5059229;28;20202;-77
2023/07/04 10:38:29;;;;;;;6.67;5.97;;;29.70;97.50;;;;;;5058565;28;20205;-76
2023/07/04 10:40:59;;;;;;;6.00;4.90;;;29.30;97.40;;;;;;5059319;28;20225;-78
2023/07/04 10:43:30;;;;;;;6.30;4.73;;;28.80;98.20;;;;;;5069738;28;20244;-77
2023/07/04 10:46:01;;;;;;;6.87;5.47;;;28.50;96.40;;;;;;5054782;28;20207;-77
2023/07/04 10:48:31;;;;;;;4.50;3.33;;;28.30;98.50;;;;;;5046764;28;20342;-77
2023/07/04 10:51:02;;;;;;;4.97;3.53;;;28.50;98.20;;;;;;5066800;28;20661;-76
2023/07/04 10:53:29;;;;;;;4.67;3.63;;;28.30;97.30;;;;;;5056925;28;20299;-76
2023/07/04 10:56:01;;;;;;;4.77;3.20;;;28.50;98.40;;;;;;5056412;28;20192;-78
2023/07/04 10:58:33;;;;;;;4.27;3.17;;;28.60;98.30;;;;;;5055959;28;20199;-78
2023/07/04 11:01:04;;;;;;;4.73;3.53;;;28.70;97.60;;;;;;5058740;28;20700;-77
2023/07/04 11:03:40;;;;;;;6.07;3.40;;;28.50;96.50;;;;;;5067652;28;20230;-77
2023/07/04 11:06:11;;;;;;;4.97;3.97;;;28.00;98.00;;;;;;5055261;28;20227;-78
2023/07/04 11:08:38;;;;;;;4.73;3.40;;;27.50;98.40;;;;;;5063937;28;20701;-78
2023/07/04 11:11:11;;;;;;;5.97;5.37;;;27.20;98.40;;;;;;5058579;28;20195;-77
2023/07/04 11:13:45;;;;;;;6.70;6.20;;;27.00;98.20;;;;;;5055357;28;20275;-77
2023/07/04 11:16:13;;;;;;;6.93;6.33;;;27.30;98.30;;;;;;5068202;28;20187;-77
2023/07/04 11:18:44;;;;;;;5.30;3.50;;;27.30;98.00;;;;;;5059673;28;20728;-77
2023/07/04 11:21:13;;;;;;;5.03;2.80;;;27.20;98.30;;;;;;5058014;28;20199;-77
2023/07/04 11:23:49;;;;;;;4.20;3.03;;;27.30;98.50;;;;;;5051404;28;20215;-76
2023/07/04 11:26:19;;;;;;;6.97;5.90;;;27.60;98.50;;;;;;5069021;28;20233;-77
2023/07/04 11:28:48;;;;;;;4.53;4.13;;;27.50;98.00;;;;;;5065778;28;20265;-76
2023/07/04 11:31:25;;;;;;;6.07;5.03;;;27.30;98.30;;;;;;5062870;28;20616;-77
2023/07/04 11:34:04;;;;;;;7.67;3.73;;;27.00;99.10;;;;;;5068466;28;20298;-76
2023/07/04 11:36:33;;;;;;;4.60;3.13;;;26.60;98.20;;;;;;5057236;28;20194;-78
2023/07/04 11:39:03;;;;;;;3.83;2.90;;;26.50;99.90;;;;;;5050834;28;20210;-77
2023/07/04 11:41:34;;;;;;;3.23;2.90;;;26.70;99.90;;;;;;5058103;28;20198;-77
2023/07/04 11:44:12;;;;;;;4.73;3.30;;;27.00;99.40;;;;;;5058768;28;20190;-78
2023/07/04 11:46:41;;;;;;;3.63;3.03;;;27.30;98.20;;;;;;5064495;28;20221;-78
2023/07/04 11:49:17;;;;;;;5.87;3.50;;;27.40;98.00;;;;;;5051916;28;20192;-77
2023/07/04 11:51:45;;;;;;;5.30;3.10;;;27.20;97.90;;;;;;5067671;28;20733;-77
2023/07/04 11:54:13;;;;;;;3.30;3.00;;;26.90;99.70;;;;;;5059516;28;20188;-77
2023/07/04 11:56:42;;;;;;;4.37;3.23;;;26.60;98.50;;;;;;5072644;28;20195;-76
2023/07/04 11:59:50;;;;;;;5.53;4.57;;;26.30;98.80;;;;;;5069895;28;20724;-78
2023/07/04 12:02:29;;;;;;;6.50;5.90;;;26.10;99.30;;;;;;5072378;28;20221;-75
2023/07/04 12:04:57;;;;;;;5.33;3.57;;;26.30;99.40;;;;;;5065396;28;20718;-77
2023/07/04 12:07:38;;;;;;;5.30;3.67;;;26.60;99.90;;;;;;5067430;28;20206;-77
2023/07/04 12:10:10;;;;;;;6.80;6.20;;;27.00;99.30;;;;;;5059796;28;20210;-78
2023/07/04 12:12:39;;;;;;;5.90;5.40;;;27.10;98.80;;;;;;5057035;28;20223;-77
2023/07/04 12:15:09;;;;;;;7.37;6.20;;;27.10;98.60;;;;;;5054554;28;20226;-78
2023/07/04 12:17:41;;;;;;;6.43;5.77;;;27.10;98.10;;;;;;5051195;28;20199;-78
2023/07/04 12:20:11;;;;;;;6.90;6.27;;;26.90;98.50;;;;;;5045345;28;20192;-79
2023/07/04 12:22:44;;;;;;;6.13;5.63;;;26.50;98.40;;;;;;5057461;28;20602;-79
2023/07/04 12:25:16;;;;;;;6.83;6.13;;;26.60;98.70;;;;;;5052891;28;20223;-77
2023/07/04 12:27:44;;;;;;;7.17;6.47;;;26.90;99.20;;;;;;5065341;28;20202;-78
2023/07/04 12:30:13;;;;;;;6.57;6.07;;;27.20;98.60;;;;;;5066796;28;20227;-76
2023/07/04 12:32:40;;;;;;;5.40;4.50;;;27.30;98.10;;;;;;5068781;28;20224;-77
2023/07/04 12:35:12;;;;;;;6.10;4.73;;;27.10;97.80;;;;;;5070448;28;20260;-77
2023/07/04 12:37:45;;;;;;;5.90;4.50;;;26.70;98.40;;;;;;5057219;28;20203;-78
2023/07/04 12:40:16;;;;;;;6.57;5.97;;;26.50;99.40;;;;;;5067061;28;20239;-78
2023/07/04 12:42:46;;;;;;;5.13;4.70;;;26.60;99.80;;;;;;5050132;28;20262;-77
2023/07/04 12:45:17;;;;;;;5.43;4.93;;;26.90;99.90;;;;;;5060089;28;20293;-78
2023/07/04 12:47:48;;;;;;;5.83;5.17;;;27.10;99.20;;;;;;5058620;28;20287;-77
2023/07/04 12:50:16;;;;;;;4.60;4.27;;;27.20;99.10;;;;;;5056151;28;20693;-79
2023/07/04 12:52:45;;;;;;;5.10;4.60;;;27.20;97.90;;;;;;5058875;28;20223;-77
2023/07/04 12:55:23;;;;;;;4.93;4.53;;;27.20;98.30;;;;;;5056085;28;20188;-81
2023/07/04 12:57:52;;;;;;;6.43;5.83;;;27.40;98.10;;;;;;5070946;28;20202;-79
2023/07/04 13:00:26;;;;;;;6.40;5.80;;;27.40;98.00;;;;;;5069988;28;20194;-79